Flight Track Log - Related Links

Times and Time Zones

All times are in EDT time to prevent confusion due to time zone crossing. See the EJA922 flight status page for this flight to view local times or setup timezone preferences in your user account.


Time Position Orientation Groundspeed Altitude Reporting Facility
EDT Latitude Longitude Course Direction KTS MPH feet Rate Location/Type
Mon 08:53:15 AM 43.6333 -79.6167 154° Southeast 180 207 2,400  Level Toronto Center
Mon 08:54:15 AM 43.5833 -79.5833 154° Southeast 230 265 3,800 1,250 Climbing Toronto Center
Mon 08:55:15 AM 43.5500 -79.5000 119° Southeast 280 322 4,900 1,100 Climbing Toronto Center
Mon 08:56:15 AM 43.5333 -79.3833 101° East 280 322 6,000 1,850 Climbing Toronto Center
Mon 08:57:15 AM 43.5000 -79.2833 115° Southeast 280 322 8,600 2,500 Climbing Toronto Center
Mon 08:58:15 AM 43.4833 -79.1667 101° East 300 345 11,000 2,050 Climbing Toronto Center
Mon 08:59:15 AM 43.4500 -79.0333 109° East 350 403 12,700 1,950 Climbing Toronto Center
Mon 09:00:15 AM 43.4167 -78.9000 109° East 380 437 14,900 2,000 Climbing Toronto Center
Mon 09:01:21 AM 43.3594 -78.7889 125° Southeast 389 448 16,900 1,641 Climbing Cleveland Center
Mon 09:02:23 AM 43.2978 -78.6572 123° Southeast 406 467 18,400 1,597 Climbing Cleveland Center
Mon 09:03:25 AM 43.2522 -78.5061 112° Southeast 423 487 20,200 1,584 Climbing Cleveland Center
Mon 09:04:28 AM 43.2061 -78.3564 113° Southeast 428 493 21,700 1,440 Climbing Cleveland Center
Mon 09:05:30 AM 43.1500 -78.1717 113° Southeast 433 498 23,200 1,548 Climbing Cleveland Center
Mon 09:06:32 AM 43.1014 -78.0153 113° Southeast 443 510 24,900 1,355 Climbing Cleveland Center
Mon 09:07:34 AM 43.0519 -77.8578 113° Southeast 447 514 26,000 968 Climbing Cleveland Center
Mon 09:08:36 AM 43.0022 -77.6944 113° Southeast 457 526 26,900 484 Climbing Cleveland Center
Mon 09:09:38 AM 42.9486 -77.5231 113° Southeast 478 550 27,000 48 Climbing Cleveland Center
Mon 09:10:40 AM 42.8911 -77.3442 114° Southeast 500 575 27,000  Level Cleveland Center
Mon 09:11:42 AM 42.8342 -77.1653 113° Southeast 506 582 27,000  Level Cleveland Center
Mon 09:12:44 AM 42.7658 -76.9519 114° Southeast 509 586 27,000  Level Cleveland Center
Mon 09:13:22 AM 42.7314 -76.8453 114° Southeast 508 585 27,000  Level Boston Center
Mon 09:14:23 AM 42.6747 -76.6694 114° Southeast 509 586 27,000  Level Boston Center
Mon 09:15:24 AM 42.6097 -76.4992 117° Southeast 509 586 27,000 -98 Level Boston Center
Mon 09:16:25 AM 42.5400 -76.3336 120° Southeast 508 585 26,800 -590 Descending Boston Center
Mon 09:17:26 AM 42.4744 -76.1769 120° Southeast 508 585 25,800 -968 Descending Boston Center
Mon 09:18:29 AM 42.4075 -76.0153 119° Southeast 498 573 24,800 -1,016 Descending Boston Center
Mon 09:19:30 AM 42.3397 -75.8547 120° Southeast 494 568 23,700 -893 Descending Boston Center
Mon 09:20:30 AM 42.2742 -75.6992 120° Southeast 482 555 23,000 -339 Descending Boston Center
Mon 09:21:34 AM 42.1936 -75.5150 121° Southeast 477 549 23,000 -528 Level Boston Center
Mon 09:22:35 AM 42.1300 -75.3656 120° Southeast 465 535 21,900 -1,377 Descending Boston Center
Mon 09:23:36 AM 42.0686 -75.2208 120° Southeast 452 520 20,200 -1,785 Descending Boston Center
Mon 09:24:36 AM 41.9997 -75.0644 121° Southeast 452 520 18,300 -1,548 Descending Boston Center
Mon 09:25:40 AM 41.9375 -74.9197 120° Southeast 451 519 17,000 -1,887 Descending Boston Center
Mon 09:26:40 AM 41.8789 -74.7797 119° Southeast 386 444 14,400 -2,281 Descending Boston Center
Mon 09:27:41 AM 41.8092 -74.7069 142° Southeast 317 365 12,400 -1,839 Descending Boston Center
Mon 09:28:44 AM 41.7364 -74.6464 148° Southeast 313 360 10,600 -1,854 Descending Boston Center
Mon 09:29:44 AM 41.6606 -74.5836 148° Southeast 302 348 8,600 -1,835 Descending Boston Center
Mon 09:30:45 AM 41.5828 -74.5822 179° South 283 326 6,900 -1,248 Descending Boston Center
Mon 09:31:49 AM 41.5069 -74.5858 182° South 277 319 6,000 -432 Descending Boston Center
Mon 09:32:50 AM 41.4275 -74.5906 183° South 270 311 6,000  Level Boston Center
Mon 09:33:50 AM 41.3522 -74.5825 175° South 275 316 6,000 -505 Level Boston Center
Mon 09:34:25 AM 41.3167 -74.5500 146° Southeast 271 312 5,200 -695 Descending New York TRACON
Mon 09:35:25 AM 41.2500 -74.5000 151° Southeast 265 305 4,900 -600 Descending New York TRACON
Mon 09:36:25 AM 41.1833 -74.4333 143° Southeast 271 312 4,000 -450 Descending New York TRACON
Mon 09:37:25 AM 41.1333 -74.3833 143° Southeast 240 276 4,000 -474 Level New York TRACON
Mon 09:38:19 AM 41.0833 -74.3500 153° Southeast 244 281 3,100 -522 Descending New York TRACON
Mon 09:39:20 AM 41.0167 -74.3167 159° South 215 247 3,000 -400 Descending New York TRACON
Mon 09:40:19 AM 40.9667 -74.2833 153° Southeast 223 257 2,300 -450 Descending New York TRACON
Mon 09:41:20 AM 40.9167 -74.3000 194° South 185 213 2,100 -149 Descending New York TRACON
Mon 09:42:20 AM 40.8833 -74.3333 217° Southwest 162 186 2,000 -403 Descending New York TRACON
Mon 09:43:19 AM 40.8500 -74.3667 217° Southwest 131 151 1,300 -712 Descending New York TRACON
Mon 09:45:00 AM 40.7993 -74.4149 184° South  Level Estimated

Login

Don't have an account? Register now (free) for customized features, flight alerts, and more!